createdAt,value
2023-03-11T00:00:57.207Z,8.8
2023-03-11T00:06:50.785Z,8.3
2023-03-11T00:12:12.170Z,8.3
2023-03-11T00:17:49.814Z,8.3
2023-03-11T00:23:42.652Z,8.3
2023-03-11T00:29:19.175Z,8.3
2023-03-11T00:34:41.548Z,8.3
2023-03-11T00:40:19.169Z,8.3
2023-03-11T00:45:55.739Z,8.2
2023-03-11T00:51:17.298Z,8.1
2023-03-11T00:56:55.267Z,8.1
2023-03-11T01:02:16.575Z,8.1
2023-03-11T01:07:45.556Z,8.2
2023-03-11T01:13:08.047Z,8.3
2023-03-11T01:19:00.939Z,8.2
2023-03-11T01:24:38.193Z,8.3
2023-03-11T01:30:15.057Z,8.3
2023-03-11T01:36:08.569Z,8.2
2023-03-11T01:42:01.720Z,8.4
2023-03-11T01:47:24.133Z,8.1
2023-03-11T01:53:00.856Z,8.2
2023-03-11T01:58:53.428Z,8.6
2023-03-11T02:04:46.515Z,8.6
2023-03-11T02:10:39.893Z,8.4
2023-03-11T02:16:01.851Z,8.4
2023-03-11T02:21:55.176Z,8.3
2023-03-11T02:27:32.600Z,8.3
2023-03-11T02:33:27.883Z,8.4
2023-03-11T02:38:50.923Z,9.1
2023-03-11T02:44:42.150Z,9.1
2023-03-11T02:50:35.121Z,8.8
2023-03-11T02:56:27.830Z,8.7
2023-03-11T03:02:04.815Z,8.7
2023-03-11T03:07:43.180Z,8.5
2023-03-11T03:13:19.751Z,8.6
2023-03-11T03:19:13.092Z,8.4
2023-03-11T03:24:34.474Z,8.4
2023-03-11T03:29:57.199Z,8.4
2023-03-11T03:35:50.787Z,8.6
2023-03-11T03:41:44.431Z,8.6
2023-03-11T03:47:37.677Z,8.6
2023-03-11T03:53:14.270Z,8.6
2023-03-11T03:59:07.118Z,8.6
2023-03-11T04:05:00.915Z,9.1
2023-03-11T04:10:37.536Z,9.2
2023-03-11T04:16:13.908Z,9.2
2023-03-11T04:22:06.441Z,9.4
2023-03-11T04:27:43.276Z,9.3
2023-03-11T04:33:36.578Z,9.6
2023-03-11T04:39:14.070Z,9.9
2023-03-11T04:44:51.456Z,10.2
2023-03-11T04:50:44.015Z,9.8
2023-03-11T04:56:36.187Z,9.7
2023-03-11T05:02:29.625Z,9.5
2023-03-11T05:08:23.756Z,9.4
2023-03-11T05:14:01.703Z,9.3
2023-03-11T05:19:39.068Z,9.5
2023-03-11T05:25:34.015Z,10
2023-03-11T05:31:27.679Z,9.8
2023-03-11T05:37:20.258Z,9.9
2023-03-11T05:42:42.041Z,9.9
2023-03-11T05:48:19.440Z,9.8
2023-03-11T05:53:58.069Z,9.7
2023-03-11T05:59:51.345Z,9.6
2023-03-11T06:05:30.501Z,9.6
2023-03-11T06:11:07.700Z,9.6
2023-03-11T06:16:29.820Z,9.4
2023-03-11T06:22:08.200Z,9.4
2023-03-11T06:27:45.551Z,9.4
2023-03-11T06:33:23.110Z,9.4
2023-03-11T06:39:15.429Z,9.4
2023-03-11T06:44:52.286Z,9.3
2023-03-11T06:50:46.072Z,9.2
2023-03-11T06:56:40.462Z,9.3
2023-03-11T07:02:17.156Z,9.5
2023-03-11T07:07:54.779Z,9.7
2023-03-11T07:13:51.973Z,10
2023-03-11T07:19:45.337Z,10.1
2023-03-11T07:25:38.627Z,10.3
2023-03-11T07:31:31.777Z,10.5
2023-03-11T07:37:27.423Z,10.7
2023-03-11T07:43:20.044Z,10.9
2023-03-11T07:48:58.557Z,11.5
2023-03-11T07:54:51.685Z,11.6
2023-03-11T08:00:47.217Z,12.6
2023-03-11T08:06:25.477Z,12.5
2023-03-11T08:12:17.972Z,12.4
2023-03-11T08:17:55.627Z,12.9
2023-03-11T08:24:05.039Z,13.5
2023-03-11T08:29:58.559Z,13.2
2023-03-11T08:35:21.010Z,14.1
2023-03-11T08:41:15.255Z,14.2
2023-03-11T08:47:08.912Z,14.1
2023-03-11T08:52:55.181Z,14.8
2023-03-11T08:58:48.866Z,14.7
2023-03-11T09:04:43.857Z,15.3
2023-03-11T09:10:38.258Z,14.6
2023-03-11T09:16:31.100Z,15.3
2023-03-11T09:21:52.359Z,15.3
2023-03-11T09:27:29.192Z,15.1
2023-03-11T09:33:07.820Z,15.1
2023-03-11T09:38:47.557Z,15
2023-03-11T09:44:33.692Z,13.6
2023-03-11T09:49:56.268Z,13.7
2023-03-11T09:55:33.312Z,15.1
2023-03-11T10:00:54.530Z,14.8
2023-03-11T10:06:33.307Z,14.4
2023-03-11T10:12:25.699Z,14.4
2023-03-11T10:18:18.169Z,14.4
2023-03-11T10:23:55.552Z,14.8
2023-03-11T10:29:32.664Z,14.1
2023-03-11T10:35:26.597Z,14.3
2023-03-11T10:41:31.344Z,14.1
2023-03-11T10:46:54.928Z,13.9
2023-03-11T10:52:31.682Z,13.8
2023-03-11T10:58:08.716Z,13.1
2023-03-11T11:03:32.967Z,10.8
2023-03-11T11:09:09.702Z,11.9
2023-03-11T11:14:32.928Z,12.4
2023-03-11T11:20:10.718Z,13.2
2023-03-11T11:25:47.838Z,14
2023-03-11T11:31:27.775Z,14.1
2023-03-11T11:37:21.641Z,14.1
2023-03-11T11:42:58.628Z,14.3
2023-03-11T11:48:36.666Z,15.1
2023-03-11T11:54:15.006Z,15.3
2023-03-11T11:59:52.800Z,15.6
2023-03-11T12:05:47.446Z,16.4
2023-03-11T12:11:35.721Z,16.1
2023-03-11T12:17:28.981Z,15.4
2023-03-11T12:22:51.542Z,15
2023-03-11T12:28:12.794Z,15.2
2023-03-11T12:33:50.712Z,15
2023-03-11T12:39:44.409Z,14.9
2023-03-11T12:45:22.073Z,15.3
2023-03-11T12:51:00.398Z,14.6
2023-03-11T12:56:39.713Z,14.6
2023-03-11T13:02:18.556Z,14.4
2023-03-11T13:07:56.089Z,14.2
2023-03-11T13:13:34.205Z,13.6
2023-03-11T13:18:57.094Z,12.5
2023-03-11T13:24:34.543Z,10.5
2023-03-11T13:29:41.799Z,9.6
2023-03-11T13:35:22.156Z,9.5
2023-03-11T13:41:00.146Z,9.4
2023-03-11T13:46:22.210Z,8.9
2023-03-11T13:52:18.972Z,9.1
2023-03-11T13:57:40.264Z,9.8
2023-03-11T14:03:17.604Z,10.1
2023-03-11T14:08:56.664Z,9.9
2023-03-11T14:14:33.254Z,9.9
2023-03-11T14:20:10.631Z,10
2023-03-11T14:25:48.897Z,10.1
2023-03-11T14:31:26.765Z,10.2
2023-03-11T14:37:20.941Z,10
2023-03-11T14:42:47.369Z,9.9
2023-03-11T14:48:08.946Z,9.9
2023-03-11T14:53:15.995Z,9.9
2023-03-11T14:59:06.554Z,10
2023-03-11T15:04:45.198Z,9.8
2023-03-11T15:10:25.257Z,9.3
2023-03-11T15:16:18.909Z,9
2023-03-11T15:22:23.182Z,8.9
2023-03-11T15:28:18.468Z,8.9
2023-03-11T15:33:56.329Z,8.8
2023-03-11T15:39:49.838Z,8.7
2023-03-11T15:45:34.715Z,8.6
2023-03-11T15:51:43.427Z,8.2
2023-03-11T15:57:52.660Z,7.8
2023-03-11T16:03:31.601Z,7.7
2023-03-11T16:09:57.418Z,7.6
2023-03-11T16:15:50.900Z,7.4
2023-03-11T16:22:00.891Z,6.9
2023-03-11T16:28:05.754Z,6.3
2023-03-11T16:34:09.549Z,6.1
2023-03-11T16:40:02.594Z,5.9
2023-03-11T16:45:40.958Z,5.8
2023-03-11T16:51:17.900Z,5.7
2023-03-11T16:56:58.173Z,5.6
2023-03-11T17:02:52.258Z,5.5
2023-03-11T17:08:49.508Z,5.4
2023-03-11T17:14:49.570Z,5.3
2023-03-11T17:20:27.476Z,5.2
2023-03-11T17:25:49.171Z,5.1
2023-03-11T17:31:44.288Z,5
2023-03-11T17:37:38.618Z,4.9
2023-03-11T17:43:31.369Z,4.8
2023-03-11T17:49:24.753Z,4.6
2023-03-11T17:55:17.858Z,4.5
2023-03-11T18:01:02.896Z,4.4
2023-03-11T18:06:26.213Z,4.3
2023-03-11T18:12:03.244Z,4.3
2023-03-11T18:17:39.492Z,4.3
2023-03-11T18:23:36.674Z,4.1
2023-03-11T18:29:14.575Z,4.1
2023-03-11T18:35:07.880Z,4.1
2023-03-11T18:41:02.225Z,4.1
2023-03-11T18:46:40.331Z,4.3
2023-03-11T18:52:32.123Z,4.2
2023-03-11T18:58:09.764Z,4.1
2023-03-11T19:03:32.053Z,4
2023-03-11T19:09:09.073Z,3.9
2023-03-11T19:15:14.868Z,3.8
2023-03-11T19:21:00.700Z,3.8
2023-03-11T19:27:02.690Z,3.8
2023-03-11T19:32:55.334Z,3.7
2023-03-11T19:38:48.648Z,3.8
2023-03-11T19:44:41.868Z,3.9
2023-03-11T19:50:34.922Z,3.8
2023-03-11T19:56:06.379Z,3.8
2023-03-11T20:01:43.616Z,3.8
2023-03-11T20:07:22.032Z,3.8
2023-03-11T20:12:55.947Z,3.7
2023-03-11T20:18:24.802Z,3.7
2023-03-11T20:23:47.626Z,3.7
2023-03-11T20:29:43.334Z,3.7
2023-03-11T20:35:35.985Z,3.6
2023-03-11T20:41:15.055Z,3.5
2023-03-11T20:46:22.046Z,3.4
2023-03-11T20:52:00.213Z,3.4
2023-03-11T20:57:53.161Z,3.4
2023-03-11T21:03:48.447Z,3.4
2023-03-11T21:09:42.356Z,3.2
2023-03-11T21:15:24.122Z,3.1
2023-03-11T21:26:26.422Z,2.9
2023-03-11T21:32:20.867Z,2.8
2023-03-11T21:38:01.500Z,2.8
2023-03-11T21:43:55.503Z,2.6
2023-03-11T21:49:54.146Z,2.9
2023-03-11T21:55:48.657Z,2.9
2023-03-11T22:01:27.016Z,3.1
2023-03-11T22:07:07.094Z,2.9
2023-03-11T22:12:45.457Z,2.8
2023-03-11T22:18:39.435Z,2.9
2023-03-11T22:24:35.894Z,2.8
2023-03-11T22:30:30.518Z,2.7
2023-03-11T22:36:07.235Z,2.6
2023-03-11T22:41:59.773Z,2.5
2023-03-11T22:47:36.953Z,2.3
2023-03-11T22:53:28.970Z,2.1
2023-03-11T22:59:06.177Z,1.9
2023-03-11T23:04:59.606Z,1.8
2023-03-11T23:10:37.969Z,1.7
2023-03-11T23:16:45.783Z,1.8
2023-03-11T23:22:38.029Z,1.8
2023-03-11T23:28:30.750Z,1.6
2023-03-11T23:34:23.908Z,1.6
2023-03-11T23:40:16.468Z,1.6
2023-03-11T23:46:22.319Z,1.5
2023-03-11T23:52:00.082Z,1.5
2023-03-11T23:57:52.703Z,1.6
